createdAt,value
2022-10-03T00:00:02.200Z,1009.69
2022-10-03T00:05:02.155Z,1009.67
2022-10-03T00:10:01.962Z,1009.74
2022-10-03T00:15:01.916Z,1009.83
2022-10-03T00:20:01.925Z,1009.85
2022-10-03T00:25:01.560Z,1009.9
2022-10-03T00:30:01.427Z,1010.06
2022-10-03T00:35:01.641Z,1010.11
2022-10-03T00:40:01.922Z,1010.11
2022-10-03T00:45:02.161Z,1010.14
2022-10-03T00:50:01.813Z,1010.14
2022-10-03T00:55:01.748Z,1010.23
2022-10-03T01:00:01.485Z,1010.2
2022-10-03T01:05:02.169Z,1010.21
2022-10-03T01:10:01.445Z,1010.24
2022-10-03T01:15:01.593Z,1010.24
2022-10-03T01:20:01.538Z,1010.22
2022-10-03T01:25:01.462Z,1010.21
2022-10-03T01:30:01.781Z,1010.19
2022-10-03T01:35:01.911Z,1010.2
2022-10-03T01:40:01.833Z,1010.15
2022-10-03T01:45:02.019Z,1010.18
2022-10-03T01:50:02.176Z,1010.21
2022-10-03T01:55:01.298Z,1010.13
2022-10-03T02:00:02.193Z,1010.13
2022-10-03T02:05:01.789Z,1010.2
2022-10-03T02:10:02.086Z,1010.22
2022-10-03T02:15:01.768Z,1010.31
2022-10-03T02:20:01.799Z,1010.37
2022-10-03T02:25:01.488Z,1010.35
2022-10-03T02:30:02.244Z,1010.38
2022-10-03T02:35:01.408Z,1010.41
2022-10-03T02:40:01.631Z,1010.33
2022-10-03T02:45:01.716Z,1010.35
2022-10-03T02:50:01.429Z,1010.33
2022-10-03T02:55:01.452Z,1010.29
2022-10-03T03:00:01.421Z,1010.33
2022-10-03T03:05:01.607Z,1010.35
2022-10-03T03:10:01.941Z,1010.41
2022-10-03T03:15:02.190Z,1010.36
2022-10-03T03:20:01.712Z,1010.43
2022-10-03T03:25:01.963Z,1010.55
2022-10-03T03:30:01.957Z,1010.58
2022-10-03T03:35:01.939Z,1010.6
2022-10-03T03:40:02.255Z,1010.65
2022-10-03T03:45:01.607Z,1010.71
2022-10-03T03:50:01.955Z,1010.75
2022-10-03T03:55:01.692Z,1010.77
2022-10-03T04:00:02.089Z,1010.77
2022-10-03T04:05:01.742Z,1010.71
2022-10-03T04:10:01.924Z,1010.75
2022-10-03T04:15:01.870Z,1010.76
2022-10-03T04:20:01.903Z,1010.84
2022-10-03T04:25:01.817Z,1010.86
2022-10-03T04:30:01.355Z,1010.91
2022-10-03T04:35:01.335Z,1010.87
2022-10-03T04:40:02.032Z,1010.8
2022-10-03T04:45:02.257Z,1010.81
2022-10-03T04:50:01.923Z,1010.84
2022-10-03T04:55:01.735Z,1010.92
2022-10-03T05:00:01.796Z,1010.92
2022-10-03T05:05:02.108Z,1010.88
2022-10-03T05:10:05.841Z,1010.84
2022-10-03T05:15:01.804Z,1010.97
2022-10-03T05:20:02.095Z,1010.95
2022-10-03T05:25:01.871Z,1011.04
2022-10-03T05:30:02.092Z,1011.09
2022-10-03T05:35:01.425Z,1011.09
2022-10-03T05:40:02.189Z,1011.21
2022-10-03T05:45:01.235Z,1011.27
2022-10-03T05:50:05.542Z,1011.27
2022-10-03T05:55:01.396Z,1011.23
2022-10-03T06:00:02.080Z,1011.3
2022-10-03T06:05:01.337Z,1011.24
2022-10-03T06:10:01.741Z,1011.31
2022-10-03T06:15:01.696Z,1011.35
2022-10-03T06:20:01.940Z,1011.37
2022-10-03T06:25:02.046Z,1011.38
2022-10-03T06:30:01.691Z,1011.34
2022-10-03T06:35:02.140Z,1011.44
2022-10-03T06:40:03.258Z,1011.53
2022-10-03T06:45:01.439Z,1011.59
2022-10-03T06:50:01.711Z,1011.62
2022-10-03T06:55:02.248Z,1011.63
2022-10-03T07:00:02.400Z,1011.61
2022-10-03T07:05:02.189Z,1011.64
2022-10-03T07:10:01.389Z,1011.66
2022-10-03T07:15:01.861Z,1011.6
2022-10-03T07:20:01.387Z,1011.66
2022-10-03T07:25:01.348Z,1011.67
2022-10-03T07:30:01.965Z,1011.76
2022-10-03T07:35:02.229Z,1011.84
2022-10-03T07:40:01.676Z,1011.9
2022-10-03T07:45:02.217Z,1011.98
2022-10-03T07:50:01.431Z,1012.03
2022-10-03T07:55:02.096Z,1012.08
2022-10-03T08:00:02.378Z,1012.16
2022-10-03T08:05:01.740Z,1012.17
2022-10-03T08:10:01.772Z,1012.19
2022-10-03T08:15:01.423Z,1012.19
2022-10-03T08:20:01.263Z,1012.11
2022-10-03T08:25:03.146Z,1012.28
2022-10-03T08:30:01.950Z,1012.28
2022-10-03T08:35:01.764Z,1012.31
2022-10-03T08:40:01.378Z,1012.35
2022-10-03T08:45:01.408Z,1012.37
2022-10-03T08:50:05.314Z,1012.33
2022-10-03T08:55:01.719Z,1012.36
2022-10-03T09:00:01.690Z,1012.34
2022-10-03T09:05:01.454Z,1012.37
2022-10-03T09:10:01.863Z,1012.37
2022-10-03T09:15:02.092Z,1012.35
2022-10-03T09:20:01.967Z,1012.35
2022-10-03T09:25:01.621Z,1012.26
2022-10-03T09:30:01.828Z,1012.3
2022-10-03T09:35:06.184Z,1012.27
2022-10-03T09:40:01.636Z,1012.26
2022-10-03T09:45:02.026Z,1012.25
2022-10-03T09:50:02.214Z,1012.28
2022-10-03T09:55:01.245Z,1012.28
2022-10-03T10:00:02.274Z,1012.23
2022-10-03T10:05:02.094Z,1012.17
2022-10-03T10:10:02.174Z,1012.07
2022-10-03T10:15:01.588Z,1012.06
2022-10-03T10:20:01.806Z,1012.03
2022-10-03T10:25:01.606Z,1012.01
2022-10-03T10:30:01.577Z,1012.11
2022-10-03T10:35:01.644Z,1012.13
2022-10-03T10:40:01.695Z,1012.15
2022-10-03T10:45:02.279Z,1012.04
2022-10-03T10:50:01.777Z,1012.01
2022-10-03T10:55:01.459Z,1012.03
2022-10-03T11:00:01.578Z,1012.03
2022-10-03T11:05:01.425Z,1011.96
2022-10-03T11:10:01.800Z,1011.86
2022-10-03T11:15:02.117Z,1011.83
2022-10-03T11:20:01.525Z,1011.78
2022-10-03T11:25:01.444Z,1011.76
2022-10-03T11:30:01.806Z,1011.77
2022-10-03T11:35:01.480Z,1011.75
2022-10-03T11:40:02.265Z,1011.72
2022-10-03T11:45:01.238Z,1011.69
2022-10-03T11:50:01.838Z,1011.71
2022-10-03T11:55:01.440Z,1011.56
2022-10-03T12:00:01.484Z,1011.63
2022-10-03T12:05:02.137Z,1011.6
2022-10-03T12:10:01.400Z,1011.56
2022-10-03T12:15:01.312Z,1011.51
2022-10-03T12:20:01.367Z,1011.54
2022-10-03T12:25:02.109Z,1011.51
2022-10-03T12:30:01.825Z,1011.57
2022-10-03T12:35:02.087Z,1011.59
2022-10-03T12:40:01.827Z,1011.56
2022-10-03T12:45:02.164Z,1011.54
2022-10-03T12:50:01.535Z,1011.49
2022-10-03T12:55:02.181Z,1011.45
2022-10-03T13:00:01.380Z,1011.43
2022-10-03T13:05:02.227Z,1011.38
2022-10-03T13:10:02.084Z,1011.34
2022-10-03T13:15:01.694Z,1011.29
2022-10-03T13:20:01.526Z,1011.28
2022-10-03T13:25:01.440Z,1011.2
2022-10-03T13:30:02.177Z,1011.25
2022-10-03T13:35:02.054Z,1011.32
2022-10-03T13:40:02.187Z,1011.28
2022-10-03T13:45:01.483Z,1011.19
2022-10-03T13:50:01.811Z,1011.14
2022-10-03T13:55:02.142Z,1011.03
2022-10-03T14:00:02.032Z,1010.98
2022-10-03T14:05:01.936Z,1010.97
2022-10-03T14:10:01.683Z,1011.03
2022-10-03T14:15:01.529Z,1010.95
2022-10-03T14:20:01.631Z,1010.95
2022-10-03T14:25:01.362Z,1010.92
2022-10-03T14:30:01.473Z,1010.86
2022-10-03T14:35:01.375Z,1010.81
2022-10-03T14:40:01.559Z,1010.8
2022-10-03T14:45:01.513Z,1010.79
2022-10-03T14:50:01.924Z,1010.78
2022-10-03T14:55:01.426Z,1010.75
2022-10-03T15:00:02.037Z,1010.8
2022-10-03T15:05:01.778Z,1010.75
2022-10-03T15:10:01.656Z,1010.72
2022-10-03T15:15:01.686Z,1010.65
2022-10-03T15:20:01.533Z,1010.52
2022-10-03T15:25:01.639Z,1010.49
2022-10-03T15:30:02.039Z,1010.51
2022-10-03T15:35:02.222Z,1010.45
2022-10-03T15:40:01.540Z,1010.43
2022-10-03T15:45:01.700Z,1010.44
2022-10-03T15:50:01.800Z,1010.45
2022-10-03T15:55:11.887Z,1010.4
2022-10-03T16:00:03.535Z,1010.35
2022-10-03T16:05:01.557Z,1010.28
2022-10-03T16:10:02.226Z,1010.33
2022-10-03T16:15:01.814Z,1010.27
2022-10-03T16:20:01.532Z,1010.27
2022-10-03T16:25:02.195Z,1010.22
2022-10-03T16:30:01.894Z,1010.19
2022-10-03T16:35:02.159Z,1010.15
2022-10-03T16:40:01.458Z,1010.09
2022-10-03T16:45:01.625Z,1010.09
2022-10-03T16:50:02.147Z,1010.05
2022-10-03T16:55:01.716Z,1010.09
2022-10-03T17:00:01.716Z,1010.01
2022-10-03T17:05:02.192Z,1009.96
2022-10-03T17:10:01.706Z,1009.88
2022-10-03T17:15:02.425Z,1009.89
2022-10-03T17:20:02.186Z,1009.95
2022-10-03T17:25:01.505Z,1009.82
2022-10-03T17:30:01.740Z,1009.78
2022-10-03T17:35:01.932Z,1009.77
2022-10-03T17:40:01.694Z,1009.85
2022-10-03T17:45:01.986Z,1009.85
2022-10-03T17:50:01.732Z,1009.82
2022-10-03T17:55:01.971Z,1009.77
2022-10-03T18:00:02.390Z,1009.83
2022-10-03T18:05:01.424Z,1009.88
2022-10-03T18:10:01.284Z,1009.72
2022-10-03T18:15:01.861Z,1009.71
2022-10-03T18:20:01.980Z,1009.63
2022-10-03T18:25:01.382Z,1009.63
2022-10-03T18:30:02.056Z,1009.74
2022-10-03T18:35:01.367Z,1009.76
2022-10-03T18:40:01.552Z,1009.64
2022-10-03T18:45:02.002Z,1009.64
2022-10-03T18:50:01.575Z,1009.5
2022-10-03T18:55:01.440Z,1009.41
2022-10-03T19:00:02.271Z,1009.43
2022-10-03T19:05:01.515Z,1009.45
2022-10-03T19:10:01.865Z,1009.41
2022-10-03T19:15:02.397Z,1009.42
2022-10-03T19:20:02.127Z,1009.4
2022-10-03T19:25:01.478Z,1009.5
2022-10-03T19:30:01.652Z,1009.46
2022-10-03T19:35:01.901Z,1009.45
2022-10-03T19:40:02.163Z,1009.43
2022-10-03T19:45:02.164Z,1009.44
2022-10-03T19:50:01.848Z,1009.54
2022-10-03T19:55:02.044Z,1009.59
2022-10-03T20:00:02.210Z,1009.61
2022-10-03T20:05:01.339Z,1009.6
2022-10-03T20:10:01.496Z,1009.57
2022-10-03T20:15:02.141Z,1009.53
2022-10-03T20:20:01.568Z,1009.4
2022-10-03T20:25:01.922Z,1009.44
2022-10-03T20:30:01.917Z,1009.49
2022-10-03T20:35:01.743Z,1009.53
2022-10-03T20:40:01.408Z,1009.66
2022-10-03T20:45:02.072Z,1009.66
2022-10-03T20:50:01.731Z,1009.6
2022-10-03T20:55:01.553Z,1009.55
2022-10-03T21:00:02.257Z,1009.44
2022-10-03T21:05:02.008Z,1009.56
2022-10-03T21:10:01.945Z,1009.48
2022-10-03T21:15:02.481Z,1009.42
2022-10-03T21:20:02.071Z,1009.36
2022-10-03T21:25:01.818Z,1009.35
2022-10-03T21:30:01.936Z,1009.39
2022-10-03T21:35:01.752Z,1009.28
2022-10-03T21:40:01.606Z,1009.26
2022-10-03T21:45:02.256Z,1009.21
2022-10-03T21:50:02.160Z,1009.16
2022-10-03T21:55:02.160Z,1009.1
2022-10-03T22:00:01.835Z,1009.11
2022-10-03T22:05:01.890Z,1009.1
2022-10-03T22:10:02.229Z,1009
2022-10-03T22:15:01.741Z,1009.05
2022-10-03T22:20:01.971Z,1008.98
2022-10-03T22:25:02.114Z,1009.03
2022-10-03T22:30:01.494Z,1008.92
2022-10-03T22:35:01.791Z,1008.86
2022-10-03T22:40:02.093Z,1008.84
2022-10-03T22:45:01.616Z,1008.84
2022-10-03T22:50:01.960Z,1008.8
2022-10-03T22:55:01.750Z,1008.86
2022-10-03T23:00:01.752Z,1008.93
2022-10-03T23:05:02.377Z,1008.85
2022-10-03T23:10:01.977Z,1008.92
2022-10-03T23:15:02.163Z,1008.89
2022-10-03T23:20:01.749Z,1008.83
2022-10-03T23:25:01.986Z,1008.83
2022-10-03T23:30:02.250Z,1008.81
2022-10-03T23:35:02.084Z,1008.73
2022-10-03T23:40:01.613Z,1008.63
2022-10-03T23:45:02.133Z,1008.6
2022-10-03T23:50:01.774Z,1008.54
2022-10-03T23:55:01.748Z,1008.39
